Tropical Cyclones
[Index]
Main Index Home Page Stock Weather Photos Extreme Storms Discussion Storm News and Storm Chasing Reports Tropical Cyclones / Hurricanes / Typhoons Weather Data and Links Wild Fires / Bushfires Weather Observation Techniques Weather Picture Catalogue Tornado Pictures and Reports Stock Video Footage and DVDs for sale
Season 2007-2008 Tropical Cyclone PANCHO Track Map
Season 2007-2008 Summaries: [BoM-AU] [JTWC-AU] [JTWC-SIO] [JTWC-SPAC] [JTWC-SH]
<<- Previous TC | BoM 2007-2008 Season | Next TC ->>

click for intensity scale information  Lat/long Grid: Show Hide

 Date Labels: Show Hide

Bureau of Meteorology Tropical Cyclone Data

Name: PANCHO
Number: 916 / 200708_20

23 Mar 2008 06:00 UTC to 30 Mar 2008 06:00 UTC

    date/time    lat    long    hPa   cat  kts
2008-03-23 06   12.0   102.0   1000         20          
2008-03-23 12   12.2   102.2   1000         20          
2008-03-23 18   12.3   102.4   1000         25          
2008-03-24 00   12.5   102.6    998         25          
2008-03-24 06   12.7   103.1    998         25          
2008-03-24 12   13.1   103.5    998         35          
2008-03-24 18   13.4   103.9    996         35          
2008-03-25 00   13.7   104.2    990    1    35          
2008-03-25 06   14.1   104.2    982    2    50          
2008-03-25 12   14.6   104.1    982    2    50          
2008-03-25 18   14.9   104.0    982    2    50          
2008-03-26 00   15.5   104.3    974    2    55          
2008-03-26 06   16.2   104.7    968    3    75          
2008-03-26 12   17.2   105.1    940    4    90          
2008-03-26 18   18.2   105.4    940    4    90          
2008-03-27 00   19.3   105.8    934    4    95          
2008-03-27 06   20.6   106.2    940    4    90          
2008-03-27 12   21.6   106.8    952    4    85          
2008-03-27 18   22.7   107.4    964    3    75          
2008-03-28 00   23.6   108.1    974    2    60          
2008-03-28 06   24.3   108.9    982    2    50          
2008-03-28 12   24.9   109.3    986    1    45          
2008-03-28 18   25.0   110.0    990    1    40          
2008-03-29 00   25.0   110.9    996         35          
2008-03-29 06   25.3   111.3    996         35          
2008-03-29 12   25.5   111.6    996         30          
2008-03-29 18   25.7   111.4    996         30          
2008-03-30 00   26.1   111.3    998         25          
2008-03-30 06   26.2   111.1    998         25          
Winds are 10-min average.

Tropical cyclone tracks developed by Michael Bath using data from the Bureau of Meteorology and Google Maps.


[Australian Severe Weather index] [Copyright Notice] [Email Contacts] [Search This Site] [Privacy Policy]
Document: tropical_cyclone_pancho.htm Updated: 29 June 2017